sensor_id;sensor_type;location;lat;lon;timestamp;temperature;humidity
33943;DHT22;66763;47.856;17.462;2023-06-14T00:00:09;22.60;46.30
33943;DHT22;66763;47.856;17.462;2023-06-14T00:02:35;22.50;46.20
33943;DHT22;66763;47.856;17.462;2023-06-14T00:05:01;22.60;46.30
33943;DHT22;66763;47.856;17.462;2023-06-14T00:07:36;22.50;46.20
33943;DHT22;66763;47.856;17.462;2023-06-14T00:10:02;22.50;46.20
33943;DHT22;66763;47.856;17.462;2023-06-14T00:12:28;22.60;46.40
33943;DHT22;66763;47.856;17.462;2023-06-14T00:14:53;22.50;46.30
33943;DHT22;66763;47.856;17.462;2023-06-14T00:17:19;22.50;46.40
33943;DHT22;66763;47.856;17.462;2023-06-14T00:19:46;22.50;46.30
33943;DHT22;66763;47.856;17.462;2023-06-14T00:22:11;22.60;46.40
33943;DHT22;66763;47.856;17.462;2023-06-14T00:24:37;22.50;46.40
33943;DHT22;66763;47.856;17.462;2023-06-14T00:27:02;22.50;46.40
33943;DHT22;66763;47.856;17.462;2023-06-14T00:29:28;22.50;46.30
33943;DHT22;66763;47.856;17.462;2023-06-14T00:31:53;22.50;46.40
33943;DHT22;66763;47.856;17.462;2023-06-14T00:34:19;22.50;46.40
33943;DHT22;66763;47.856;17.462;2023-06-14T00:36:44;22.50;46.40
33943;DHT22;66763;47.856;17.462;2023-06-14T00:39:10;22.50;46.40
33943;DHT22;66763;47.856;17.462;2023-06-14T00:41:35;22.50;46.40
33943;DHT22;66763;47.856;17.462;2023-06-14T00:44:01;22.50;46.40
33943;DHT22;66763;47.856;17.462;2023-06-14T00:46:26;22.50;46.50
33943;DHT22;66763;47.856;17.462;2023-06-14T00:48:52;22.50;46.50
33943;DHT22;66763;47.856;17.462;2023-06-14T00:51:18;22.50;46.50
33943;DHT22;66763;47.856;17.462;2023-06-14T00:53:44;22.50;46.50
33943;DHT22;66763;47.856;17.462;2023-06-14T00:56:12;22.50;46.40
33943;DHT22;66763;47.856;17.462;2023-06-14T00:58:38;22.50;46.40
33943;DHT22;66763;47.856;17.462;2023-06-14T01:01:04;22.50;46.50
33943;DHT22;66763;47.856;17.462;2023-06-14T01:03:30;22.50;46.40
33943;DHT22;66763;47.856;17.462;2023-06-14T01:06:03;22.50;46.40
33943;DHT22;66763;47.856;17.462;2023-06-14T01:08:32;22.50;46.50
33943;DHT22;66763;47.856;17.462;2023-06-14T01:11:05;22.50;46.40
33943;DHT22;66763;47.856;17.462;2023-06-14T01:13:33;22.50;46.40
33943;DHT22;66763;47.856;17.462;2023-06-14T01:15:59;22.40;46.40
33943;DHT22;66763;47.856;17.462;2023-06-14T01:18:26;22.40;46.40
33943;DHT22;66763;47.856;17.462;2023-06-14T01:20:53;22.50;46.40
33943;DHT22;66763;47.856;17.462;2023-06-14T01:23:21;22.50;46.30
33943;DHT22;66763;47.856;17.462;2023-06-14T01:25:47;22.50;46.40
33943;DHT22;66763;47.856;17.462;2023-06-14T01:28:13;22.50;46.40
33943;DHT22;66763;47.856;17.462;2023-06-14T01:30:42;22.40;46.20
33943;DHT22;66763;47.856;17.462;2023-06-14T01:33:11;22.40;46.30
33943;DHT22;66763;47.856;17.462;2023-06-14T01:35:37;22.40;46.30
33943;DHT22;66763;47.856;17.462;2023-06-14T01:38:03;22.40;46.20
33943;DHT22;66763;47.856;17.462;2023-06-14T01:40:29;22.40;46.30
33943;DHT22;66763;47.856;17.462;2023-06-14T01:42:55;22.40;46.10
33943;DHT22;66763;47.856;17.462;2023-06-14T01:45:21;22.40;45.40
33943;DHT22;66763;47.856;17.462;2023-06-14T01:47:47;22.40;45.80
33943;DHT22;66763;47.856;17.462;2023-06-14T01:50:12;22.40;45.90
33943;DHT22;66763;47.856;17.462;2023-06-14T01:52:38;22.40;46.10
33943;DHT22;66763;47.856;17.462;2023-06-14T01:55:04;22.40;46.00
33943;DHT22;66763;47.856;17.462;2023-06-14T01:57:30;22.40;46.00
33943;DHT22;66763;47.856;17.462;2023-06-14T01:59:56;22.40;45.90
33943;DHT22;66763;47.856;17.462;2023-06-14T02:02:21;22.40;46.10
33943;DHT22;66763;47.856;17.462;2023-06-14T02:04:47;22.40;46.00
33943;DHT22;66763;47.856;17.462;2023-06-14T02:07:13;22.40;45.70
33943;DHT22;66763;47.856;17.462;2023-06-14T02:09:38;22.40;45.90
33943;DHT22;66763;47.856;17.462;2023-06-14T02:12:04;22.40;45.20
33943;DHT22;66763;47.856;17.462;2023-06-14T02:14:30;22.30;45.30
33943;DHT22;66763;47.856;17.462;2023-06-14T02:16:55;22.30;44.90
33943;DHT22;66763;47.856;17.462;2023-06-14T02:19:21;22.30;45.60
33943;DHT22;66763;47.856;17.462;2023-06-14T02:21:46;22.30;45.80
33943;DHT22;66763;47.856;17.462;2023-06-14T02:24:12;22.40;45.80
33943;DHT22;66763;47.856;17.462;2023-06-14T02:26:38;22.30;45.60
33943;DHT22;66763;47.856;17.462;2023-06-14T02:29:06;22.40;45.80
33943;DHT22;66763;47.856;17.462;2023-06-14T02:31:35;22.40;45.90
33943;DHT22;66763;47.856;17.462;2023-06-14T02:34:00;22.40;45.70
33943;DHT22;66763;47.856;17.462;2023-06-14T02:36:26;22.40;45.60
33943;DHT22;66763;47.856;17.462;2023-06-14T02:38:51;22.30;45.70
33943;DHT22;66763;47.856;17.462;2023-06-14T02:41:19;22.40;45.80
33943;DHT22;66763;47.856;17.462;2023-06-14T02:43:44;22.40;45.60
33943;DHT22;66763;47.856;17.462;2023-06-14T02:46:10;22.40;45.80
33943;DHT22;66763;47.856;17.462;2023-06-14T02:48:36;22.30;45.50
33943;DHT22;66763;47.856;17.462;2023-06-14T02:51:02;22.30;45.30
33943;DHT22;66763;47.856;17.462;2023-06-14T02:53:27;22.30;45.00
33943;DHT22;66763;47.856;17.462;2023-06-14T02:55:53;22.30;45.70
33943;DHT22;66763;47.856;17.462;2023-06-14T02:58:20;22.30;45.40
33943;DHT22;66763;47.856;17.462;2023-06-14T03:00:46;22.30;44.90
33943;DHT22;66763;47.856;17.462;2023-06-14T03:03:12;22.30;45.50
33943;DHT22;66763;47.856;17.462;2023-06-14T03:05:45;22.30;45.30
33943;DHT22;66763;47.856;17.462;2023-06-14T03:08:15;22.30;45.40
33943;DHT22;66763;47.856;17.462;2023-06-14T03:10:42;22.30;45.50
33943;DHT22;66763;47.856;17.462;2023-06-14T03:13:08;22.30;45.40
33943;DHT22;66763;47.856;17.462;2023-06-14T03:15:34;22.30;45.00
33943;DHT22;66763;47.856;17.462;2023-06-14T03:18:00;22.30;44.90
33943;DHT22;66763;47.856;17.462;2023-06-14T03:20:26;22.30;45.30
33943;DHT22;66763;47.856;17.462;2023-06-14T03:22:54;22.30;45.20
33943;DHT22;66763;47.856;17.462;2023-06-14T03:25:19;22.30;45.20
33943;DHT22;66763;47.856;17.462;2023-06-14T03:27:47;22.30;45.40
33943;DHT22;66763;47.856;17.462;2023-06-14T03:30:13;22.30;45.00
33943;DHT22;66763;47.856;17.462;2023-06-14T03:32:38;22.20;44.60
33943;DHT22;66763;47.856;17.462;2023-06-14T03:35:04;22.30;45.30
33943;DHT22;66763;47.856;17.462;2023-06-14T03:37:30;22.30;45.00
33943;DHT22;66763;47.856;17.462;2023-06-14T03:39:55;22.20;45.20
33943;DHT22;66763;47.856;17.462;2023-06-14T03:42:21;22.30;44.90
33943;DHT22;66763;47.856;17.462;2023-06-14T03:44:46;22.30;45.10
33943;DHT22;66763;47.856;17.462;2023-06-14T03:47:12;22.30;44.60
33943;DHT22;66763;47.856;17.462;2023-06-14T03:49:37;22.20;44.10
33943;DHT22;66763;47.856;17.462;2023-06-14T03:52:03;22.20;44.70
33943;DHT22;66763;47.856;17.462;2023-06-14T03:54:29;22.20;44.70
33943;DHT22;66763;47.856;17.462;2023-06-14T03:56:54;22.20;44.40
33943;DHT22;66763;47.856;17.462;2023-06-14T03:59:22;22.20;44.10
33943;DHT22;66763;47.856;17.462;2023-06-14T04:01:48;22.20;44.40
33943;DHT22;66763;47.856;17.462;2023-06-14T04:04:14;22.20;44.20
33943;DHT22;66763;47.856;17.462;2023-06-14T04:06:41;22.20;44.70
33943;DHT22;66763;47.856;17.462;2023-06-14T04:09:08;22.20;44.60
33943;DHT22;66763;47.856;17.462;2023-06-14T04:11:33;22.20;44.70
33943;DHT22;66763;47.856;17.462;2023-06-14T04:13:59;22.20;44.90
33943;DHT22;66763;47.856;17.462;2023-06-14T04:16:25;22.20;45.20
33943;DHT22;66763;47.856;17.462;2023-06-14T04:18:50;22.20;45.20
33943;DHT22;66763;47.856;17.462;2023-06-14T04:21:18;22.20;45.20
33943;DHT22;66763;47.856;17.462;2023-06-14T04:23:43;22.20;45.20
33943;DHT22;66763;47.856;17.462;2023-06-14T04:26:10;22.20;44.70
33943;DHT22;66763;47.856;17.462;2023-06-14T04:28:36;22.20;45.00
33943;DHT22;66763;47.856;17.462;2023-06-14T04:31:08;22.20;45.20
33943;DHT22;66763;47.856;17.462;2023-06-14T04:33:35;22.20;45.30
33943;DHT22;66763;47.856;17.462;2023-06-14T04:36:11;22.20;44.60
33943;DHT22;66763;47.856;17.462;2023-06-14T04:38:43;22.20;44.90
33943;DHT22;66763;47.856;17.462;2023-06-14T04:41:10;22.20;44.60
33943;DHT22;66763;47.856;17.462;2023-06-14T04:43:37;22.10;44.40
33943;DHT22;66763;47.856;17.462;2023-06-14T04:46:04;22.10;45.10
33943;DHT22;66763;47.856;17.462;2023-06-14T04:48:30;22.10;45.10
33943;DHT22;66763;47.856;17.462;2023-06-14T04:50:56;22.20;44.70
33943;DHT22;66763;47.856;17.462;2023-06-14T04:53:22;22.10;44.70
33943;DHT22;66763;47.856;17.462;2023-06-14T04:55:48;22.10;44.30
33943;DHT22;66763;47.856;17.462;2023-06-14T04:58:14;22.10;44.50
33943;DHT22;66763;47.856;17.462;2023-06-14T05:00:39;22.10;44.30
33943;DHT22;66763;47.856;17.462;2023-06-14T05:03:06;22.10;44.60
33943;DHT22;66763;47.856;17.462;2023-06-14T05:05:33;22.10;44.40
33943;DHT22;66763;47.856;17.462;2023-06-14T05:07:58;22.00;44.70
33943;DHT22;66763;47.856;17.462;2023-06-14T05:10:24;22.00;44.30
33943;DHT22;66763;47.856;17.462;2023-06-14T05:12:49;22.10;44.50
33943;DHT22;66763;47.856;17.462;2023-06-14T05:15:15;22.10;44.50
33943;DHT22;66763;47.856;17.462;2023-06-14T05:17:41;22.10;44.90
33943;DHT22;66763;47.856;17.462;2023-06-14T05:20:07;22.10;44.50
33943;DHT22;66763;47.856;17.462;2023-06-14T05:22:35;22.10;44.70
33943;DHT22;66763;47.856;17.462;2023-06-14T05:25:01;22.00;44.30
33943;DHT22;66763;47.856;17.462;2023-06-14T05:27:26;22.10;44.70
33943;DHT22;66763;47.856;17.462;2023-06-14T05:29:52;22.10;44.60
33943;DHT22;66763;47.856;17.462;2023-06-14T05:32:20;22.10;44.80
33943;DHT22;66763;47.856;17.462;2023-06-14T05:34:46;22.10;44.80
33943;DHT22;66763;47.856;17.462;2023-06-14T05:37:11;22.10;44.80
33943;DHT22;66763;47.856;17.462;2023-06-14T05:39:38;22.00;44.90
33943;DHT22;66763;47.856;17.462;2023-06-14T05:42:03;22.10;45.40
33943;DHT22;66763;47.856;17.462;2023-06-14T05:44:29;22.10;45.30
33943;DHT22;66763;47.856;17.462;2023-06-14T05:46:55;22.10;45.60
33943;DHT22;66763;47.856;17.462;2023-06-14T05:49:20;22.20;45.50
33943;DHT22;66763;47.856;17.462;2023-06-14T05:51:45;22.20;45.50
33943;DHT22;66763;47.856;17.462;2023-06-14T05:54:11;22.20;45.50
33943;DHT22;66763;47.856;17.462;2023-06-14T05:56:36;22.20;45.60
33943;DHT22;66763;47.856;17.462;2023-06-14T05:59:02;22.20;45.50
33943;DHT22;66763;47.856;17.462;2023-06-14T06:01:27;22.20;45.50
33943;DHT22;66763;47.856;17.462;2023-06-14T06:03:53;22.20;45.50
33943;DHT22;66763;47.856;17.462;2023-06-14T06:06:18;22.20;45.50
33943;DHT22;66763;47.856;17.462;2023-06-14T06:08:44;22.20;45.60
33943;DHT22;66763;47.856;17.462;2023-06-14T06:11:10;22.20;45.70
33943;DHT22;66763;47.856;17.462;2023-06-14T06:13:36;22.20;46.20
33943;DHT22;66763;47.856;17.462;2023-06-14T06:16:02;22.20;45.60
33943;DHT22;66763;47.856;17.462;2023-06-14T06:18:27;22.20;45.70
33943;DHT22;66763;47.856;17.462;2023-06-14T06:20:53;22.20;45.80
33943;DHT22;66763;47.856;17.462;2023-06-14T06:23:18;22.20;45.70
33943;DHT22;66763;47.856;17.462;2023-06-14T06:25:44;22.20;45.70
33943;DHT22;66763;47.856;17.462;2023-06-14T06:28:10;22.20;45.80
33943;DHT22;66763;47.856;17.462;2023-06-14T06:30:36;22.20;45.80
33943;DHT22;66763;47.856;17.462;2023-06-14T06:33:01;22.20;45.90
33943;DHT22;66763;47.856;17.462;2023-06-14T06:35:28;22.20;45.90
33943;DHT22;66763;47.856;17.462;2023-06-14T06:37:55;22.20;45.90
33943;DHT22;66763;47.856;17.462;2023-06-14T06:40:20;22.20;45.90
33943;DHT22;66763;47.856;17.462;2023-06-14T06:42:46;22.20;46.50
33943;DHT22;66763;47.856;17.462;2023-06-14T06:45:11;22.20;45.90
33943;DHT22;66763;47.856;17.462;2023-06-14T06:47:37;22.20;46.00
33943;DHT22;66763;47.856;17.462;2023-06-14T06:50:02;22.20;46.60
33943;DHT22;66763;47.856;17.462;2023-06-14T06:52:28;22.20;46.00
33943;DHT22;66763;47.856;17.462;2023-06-14T06:54:54;22.20;46.10
33943;DHT22;66763;47.856;17.462;2023-06-14T06:57:21;22.20;46.10
33943;DHT22;66763;47.856;17.462;2023-06-14T06:59:48;22.20;46.20
33943;DHT22;66763;47.856;17.462;2023-06-14T07:02:13;22.20;46.10
33943;DHT22;66763;47.856;17.462;2023-06-14T07:04:39;22.20;46.00
33943;DHT22;66763;47.856;17.462;2023-06-14T07:07:05;22.20;46.10
33943;DHT22;66763;47.856;17.462;2023-06-14T07:09:30;22.20;46.10
33943;DHT22;66763;47.856;17.462;2023-06-14T07:11:56;22.20;46.00
33943;DHT22;66763;47.856;17.462;2023-06-14T07:14:21;22.20;46.10
33943;DHT22;66763;47.856;17.462;2023-06-14T07:16:48;22.20;46.10
33943;DHT22;66763;47.856;17.462;2023-06-14T07:19:14;22.20;46.10
33943;DHT22;66763;47.856;17.462;2023-06-14T07:21:40;22.20;46.10
33943;DHT22;66763;47.856;17.462;2023-06-14T07:24:06;22.20;46.20
33943;DHT22;66763;47.856;17.462;2023-06-14T07:26:34;22.20;46.10
33943;DHT22;66763;47.856;17.462;2023-06-14T07:29:00;22.20;46.20
33943;DHT22;66763;47.856;17.462;2023-06-14T07:31:26;22.20;46.70
33943;DHT22;66763;47.856;17.462;2023-06-14T07:33:52;22.20;46.20
33943;DHT22;66763;47.856;17.462;2023-06-14T07:36:18;22.20;46.20
33943;DHT22;66763;47.856;17.462;2023-06-14T07:38:43;22.20;46.10
33943;DHT22;66763;47.856;17.462;2023-06-14T07:41:09;22.20;46.30
33943;DHT22;66763;47.856;17.462;2023-06-14T07:43:34;22.20;46.50
33943;DHT22;66763;47.856;17.462;2023-06-14T07:46:00;22.20;46.40
33943;DHT22;66763;47.856;17.462;2023-06-14T07:48:26;22.20;46.40
33943;DHT22;66763;47.856;17.462;2023-06-14T07:50:51;22.10;46.30
33943;DHT22;66763;47.856;17.462;2023-06-14T07:53:17;22.10;46.40
33943;DHT22;66763;47.856;17.462;2023-06-14T07:55:42;22.10;46.30
33943;DHT22;66763;47.856;17.462;2023-06-14T07:58:08;22.10;46.30
33943;DHT22;66763;47.856;17.462;2023-06-14T08:00:34;22.10;46.40
33943;DHT22;66763;47.856;17.462;2023-06-14T08:02:59;22.10;46.30
33943;DHT22;66763;47.856;17.462;2023-06-14T08:05:25;22.10;46.30
33943;DHT22;66763;47.856;17.462;2023-06-14T08:07:53;22.10;46.30
33943;DHT22;66763;47.856;17.462;2023-06-14T08:10:19;22.10;46.30
33943;DHT22;66763;47.856;17.462;2023-06-14T08:12:45;22.10;46.30
33943;DHT22;66763;47.856;17.462;2023-06-14T08:15:10;22.10;46.60
33943;DHT22;66763;47.856;17.462;2023-06-14T08:17:36;22.00;46.50
33943;DHT22;66763;47.856;17.462;2023-06-14T08:20:02;22.10;46.70
33943;DHT22;66763;47.856;17.462;2023-06-14T08:22:29;22.10;46.70
33943;DHT22;66763;47.856;17.462;2023-06-14T08:24:57;22.10;46.80
33943;DHT22;66763;47.856;17.462;2023-06-14T08:27:23;22.10;47.00
33943;DHT22;66763;47.856;17.462;2023-06-14T08:29:48;22.10;47.00
33943;DHT22;66763;47.856;17.462;2023-06-14T08:32:14;22.10;47.00
33943;DHT22;66763;47.856;17.462;2023-06-14T08:34:39;22.10;46.90
33943;DHT22;66763;47.856;17.462;2023-06-14T08:37:05;22.20;47.00
33943;DHT22;66763;47.856;17.462;2023-06-14T08:39:31;22.20;47.50
33943;DHT22;66763;47.856;17.462;2023-06-14T08:41:57;22.20;47.10
33943;DHT22;66763;47.856;17.462;2023-06-14T08:44:23;22.20;46.90
33943;DHT22;66763;47.856;17.462;2023-06-14T08:46:48;22.20;46.90
33943;DHT22;66763;47.856;17.462;2023-06-14T08:49:16;22.20;46.80
33943;DHT22;66763;47.856;17.462;2023-06-14T08:51:42;22.20;46.70
33943;DHT22;66763;47.856;17.462;2023-06-14T08:54:08;22.10;46.90
33943;DHT22;66763;47.856;17.462;2023-06-14T08:56:35;22.10;46.70
33943;DHT22;66763;47.856;17.462;2023-06-14T08:59:03;22.20;47.00
33943;DHT22;66763;47.856;17.462;2023-06-14T09:01:35;22.20;46.90
33943;DHT22;66763;47.856;17.462;2023-06-14T09:04:01;22.20;46.80
33943;DHT22;66763;47.856;17.462;2023-06-14T09:06:27;22.20;46.60
33943;DHT22;66763;47.856;17.462;2023-06-14T09:08:54;22.10;46.30
33943;DHT22;66763;47.856;17.462;2023-06-14T09:11:19;22.20;46.20
33943;DHT22;66763;47.856;17.462;2023-06-14T09:13:45;22.10;46.10
33943;DHT22;66763;47.856;17.462;2023-06-14T09:16:11;22.10;46.00
33943;DHT22;66763;47.856;17.462;2023-06-14T09:18:37;22.10;45.90
33943;DHT22;66763;47.856;17.462;2023-06-14T09:21:05;22.10;46.10
33943;DHT22;66763;47.856;17.462;2023-06-14T09:23:33;22.10;46.00
33943;DHT22;66763;47.856;17.462;2023-06-14T09:25:58;22.10;46.20
33943;DHT22;66763;47.856;17.462;2023-06-14T09:28:27;22.10;46.20
33943;DHT22;66763;47.856;17.462;2023-06-14T09:30:53;22.10;46.30
33943;DHT22;66763;47.856;17.462;2023-06-14T09:33:18;22.10;46.50
33943;DHT22;66763;47.856;17.462;2023-06-14T09:35:50;22.10;46.50
33943;DHT22;66763;47.856;17.462;2023-06-14T09:38:16;22.10;46.90
33943;DHT22;66763;47.856;17.462;2023-06-14T09:40:41;22.20;46.80
33943;DHT22;66763;47.856;17.462;2023-06-14T09:43:07;22.20;47.00
33943;DHT22;66763;47.856;17.462;2023-06-14T09:45:36;22.20;47.20
33943;DHT22;66763;47.856;17.462;2023-06-14T09:48:04;22.20;47.50
33943;DHT22;66763;47.856;17.462;2023-06-14T09:50:30;22.20;47.40
33943;DHT22;66763;47.856;17.462;2023-06-14T09:52:56;22.20;47.40
33943;DHT22;66763;47.856;17.462;2023-06-14T09:55:25;22.30;47.30
33943;DHT22;66763;47.856;17.462;2023-06-14T09:57:52;22.20;47.40
33943;DHT22;66763;47.856;17.462;2023-06-14T10:00:19;22.30;47.80
33943;DHT22;66763;47.856;17.462;2023-06-14T10:02:46;22.30;47.50
33943;DHT22;66763;47.856;17.462;2023-06-14T10:05:15;22.30;47.40
33943;DHT22;66763;47.856;17.462;2023-06-14T10:10:20;22.30;47.60
